sensor_id;sensor_type;location;lat;lon;timestamp;pressure;altitude;pressure_sealevel;temperature;humidity
65175;BME280;51761;42.126;24.752;2022-12-18T04:07:51;100454.16;;;11.08;100.00
65175;BME280;51761;42.126;24.752;2022-12-18T04:10:19;100460.19;;;11.00;100.00
65175;BME280;51761;42.126;24.752;2022-12-18T04:12:45;100462.97;;;10.97;100.00
65175;BME280;51761;42.126;24.752;2022-12-18T04:15:11;100466.94;;;11.06;100.00
65175;BME280;51761;42.126;24.752;2022-12-18T04:17:38;100456.53;;;11.10;100.00
65175;BME280;51761;42.126;24.752;2022-12-18T04:20:05;100440.66;;;10.93;100.00
65175;BME280;51761;42.126;24.752;2022-12-18T04:22:30;100452.56;;;11.04;100.00
65175;BME280;51761;42.126;24.752;2022-12-18T04:24:56;100442.22;;;10.98;100.00
65175;BME280;51761;42.126;24.752;2022-12-18T04:27:21;100466.94;;;11.02;100.00
65175;BME280;51761;42.126;24.752;2022-12-18T04:29:47;100470.50;;;11.10;100.00
65175;BME280;51761;42.126;24.752;2022-12-18T04:32:12;100475.72;;;11.04;100.00
65175;BME280;51761;42.126;24.752;2022-12-18T04:34:38;100467.75;;;10.99;99.98
65175;BME280;51761;42.126;24.752;2022-12-18T04:37:03;100465.00;;;10.89;98.74
65175;BME280;51761;42.126;24.752;2022-12-18T04:39:29;100455.88;;;10.75;97.39
65175;BME280;51761;42.126;24.752;2022-12-18T04:41:54;100479.78;;;10.90;97.17
65175;BME280;51761;42.126;24.752;2022-12-18T04:44:20;100482.19;;;10.88;96.59
65175;BME280;51761;42.126;24.752;2022-12-18T04:46:45;100493.38;;;10.74;97.17
65175;BME280;51761;42.126;24.752;2022-12-18T04:49:11;100488.63;;;10.64;96.30
65175;BME280;51761;42.126;24.752;2022-12-18T04:51:37;100494.63;;;10.59;96.66
65175;BME280;51761;42.126;24.752;2022-12-18T04:54:02;100475.09;;;10.48;96.01
65175;BME280;51761;42.126;24.752;2022-12-18T04:56:28;100499.81;;;10.57;95.00
65175;BME280;51761;42.126;24.752;2022-12-18T04:58:53;100477.88;;;10.45;94.81
65175;BME280;51761;42.126;24.752;2022-12-18T05:01:19;100498.25;;;10.31;94.70
65175;BME280;51761;42.126;24.752;2022-12-18T05:03:44;100493.47;;;10.32;95.30
65175;BME280;51761;42.126;24.752;2022-12-18T05:06:10;100515.41;;;10.40;95.14
65175;BME280;51761;42.126;24.752;2022-12-18T05:08:36;100502.25;;;10.27;94.77
65175;BME280;51761;42.126;24.752;2022-12-18T05:11:06;100524.59;;;10.37;93.60
65175;BME280;51761;42.126;24.752;2022-12-18T05:13:33;100518.59;;;10.32;93.01
65175;BME280;51761;42.126;24.752;2022-12-18T05:15:59;100526.19;;;10.35;93.78
65175;BME280;51761;42.126;24.752;2022-12-18T05:18:26;100510.63;;;10.23;94.35
65175;BME280;51761;42.126;24.752;2022-12-18T05:20:52;100523.78;;;10.30;94.80
65175;BME280;51761;42.126;24.752;2022-12-18T05:23:19;100549.72;;;10.37;95.27
65175;BME280;51761;42.126;24.752;2022-12-18T05:26:00;100550.91;;;10.40;95.16
65175;BME280;51761;42.126;24.752;2022-12-18T05:28:27;100529.78;;;10.25;95.44
65175;BME280;51761;42.126;24.752;2022-12-18T05:30:55;100568.47;;;10.40;95.17
65175;BME280;51761;42.126;24.752;2022-12-18T05:33:23;100577.63;;;10.48;94.72
65175;BME280;51761;42.126;24.752;2022-12-18T05:36:00;100578.81;;;10.47;94.10
65175;BME280;51761;42.126;24.752;2022-12-18T05:38:29;100589.22;;;10.57;93.67
65175;BME280;51761;42.126;24.752;2022-12-18T05:40:55;100578.84;;;10.54;92.79
65175;BME280;51761;42.126;24.752;2022-12-18T05:43:22;100587.63;;;10.56;92.47
65175;BME280;51761;42.126;24.752;2022-12-18T05:45:48;100593.59;;;10.51;92.00
65175;BME280;51761;42.126;24.752;2022-12-18T05:48:15;100586.44;;;10.50;91.86
65175;BME280;51761;42.126;24.752;2022-12-18T05:50:41;100603.59;;;10.52;92.24
65175;BME280;51761;42.126;24.752;2022-12-18T05:53:08;100582.00;;;10.49;91.21
65175;BME280;51761;42.126;24.752;2022-12-18T05:55:38;100613.94;;;10.62;89.89
65175;BME280;51761;42.126;24.752;2022-12-18T05:58:05;100617.53;;;10.59;89.68
65175;BME280;51761;42.126;24.752;2022-12-18T06:00:32;100585.59;;;10.46;89.82
65175;BME280;51761;42.126;24.752;2022-12-18T06:02:58;100617.16;;;10.57;89.86
65175;BME280;51761;42.126;24.752;2022-12-18T06:05:24;100604.75;;;10.54;91.50
65175;BME280;51761;42.126;24.752;2022-12-18T06:07:50;100612.34;;;10.68;89.35
65175;BME280;51761;42.126;24.752;2022-12-18T06:10:16;100607.94;;;10.74;88.04
65175;BME280;51761;42.126;24.752;2022-12-18T06:12:41;100593.97;;;10.63;88.41
65175;BME280;51761;42.126;24.752;2022-12-18T06:15:07;100621.91;;;10.67;88.03
65175;BME280;51761;42.126;24.752;2022-12-18T06:17:33;100627.13;;;10.79;88.78
65175;BME280;51761;42.126;24.752;2022-12-18T06:19:59;100632.69;;;10.86;88.91
65175;BME280;51761;42.126;24.752;2022-12-18T06:22:24;100639.88;;;10.97;88.87
65175;BME280;51761;42.126;24.752;2022-12-18T06:24:50;100635.06;;;10.87;87.69
65175;BME280;51761;42.126;24.752;2022-12-18T06:27:16;100646.66;;;10.86;88.06
65175;BME280;51761;42.126;24.752;2022-12-18T06:29:41;100652.25;;;10.86;88.55
65175;BME280;51761;42.126;24.752;2022-12-18T06:32:07;100654.25;;;10.96;88.35
65175;BME280;51761;42.126;24.752;2022-12-18T06:34:34;100655.44;;;10.98;88.85
65175;BME280;51761;42.126;24.752;2022-12-18T06:37:01;100665.44;;;10.99;89.18
65175;BME280;51761;42.126;24.752;2022-12-18T06:39:27;100640.63;;;11.04;89.24
65175;BME280;51761;42.126;24.752;2022-12-18T06:41:53;100654.63;;;10.98;89.20
65175;BME280;51761;42.126;24.752;2022-12-18T06:44:19;100665.81;;;11.01;88.50
65175;BME280;51761;42.126;24.752;2022-12-18T06:46:44;100671.41;;;11.22;97.55
65175;BME280;51761;42.126;24.752;2022-12-18T06:49:10;100684.97;;;11.20;88.69
65175;BME280;51761;42.126;24.752;2022-12-18T06:51:36;100674.56;;;11.17;87.40
65175;BME280;51761;42.126;24.752;2022-12-18T06:54:01;100674.59;;;11.24;88.25
65175;BME280;51761;42.126;24.752;2022-12-18T06:56:27;100699.75;;;11.34;88.83
65175;BME280;51761;42.126;24.752;2022-12-18T06:58:53;100688.13;;;11.36;86.51
65175;BME280;51761;42.126;24.752;2022-12-18T07:01:18;100676.97;;;11.18;86.17
65175;BME280;51761;42.126;24.752;2022-12-18T07:03:44;100703.72;;;11.37;87.06
65175;BME280;51761;42.126;24.752;2022-12-18T07:06:18;100702.13;;;11.36;86.47
65175;BME280;51761;42.126;24.752;2022-12-18T07:08:45;100701.72;;;11.41;88.66
65175;BME280;51761;42.126;24.752;2022-12-18T07:11:11;100711.31;;;11.36;86.86
65175;BME280;51761;42.126;24.752;2022-12-18T07:13:37;100701.34;;;11.35;86.04
65175;BME280;51761;42.126;24.752;2022-12-18T07:16:13;100698.56;;;11.21;85.63
65175;BME280;51761;42.126;24.752;2022-12-18T07:18:39;100709.31;;;11.26;84.22
65175;BME280;51761;42.126;24.752;2022-12-18T07:21:07;100696.56;;;11.18;84.43
65175;BME280;51761;42.126;24.752;2022-12-18T07:23:34;100711.34;;;11.15;83.65
65175;BME280;51761;42.126;24.752;2022-12-18T07:26:03;100716.94;;;11.15;83.14
65175;BME280;51761;42.126;24.752;2022-12-18T07:28:28;100724.50;;;11.15;83.46
65175;BME280;51761;42.126;24.752;2022-12-18T07:30:54;100702.97;;;10.95;83.53
65175;BME280;51761;42.126;24.752;2022-12-18T07:33:19;100732.91;;;11.15;83.41
65175;BME280;51761;42.126;24.752;2022-12-18T07:35:45;100738.47;;;11.04;83.00
65175;BME280;51761;42.126;24.752;2022-12-18T07:38:10;100705.75;;;10.95;82.49
65175;BME280;51761;42.126;24.752;2022-12-18T07:40:35;100718.53;;;10.92;82.27
65175;BME280;51761;42.126;24.752;2022-12-18T07:43:01;100738.09;;;10.96;81.81
65175;BME280;51761;42.126;24.752;2022-12-18T07:45:26;100721.34;;;10.82;82.01
65175;BME280;51761;42.126;24.752;2022-12-18T07:47:52;100734.50;;;10.98;81.98
65175;BME280;51761;42.126;24.752;2022-12-18T07:50:17;100743.28;;;10.94;81.86
65175;BME280;51761;42.126;24.752;2022-12-18T07:52:43;100736.50;;;10.95;80.94
65175;BME280;51761;42.126;24.752;2022-12-18T07:55:08;100752.47;;;10.91;81.11
65175;BME280;51761;42.126;24.752;2022-12-18T07:57:34;100737.31;;;10.85;80.62
65175;BME280;51761;42.126;24.752;2022-12-18T07:59:59;100759.28;;;10.93;80.78
65175;BME280;51761;42.126;24.752;2022-12-18T08:02:25;100739.28;;;10.88;80.10
65175;BME280;51761;42.126;24.752;2022-12-18T08:04:50;100764.44;;;11.01;80.28
65175;BME280;51761;42.126;24.752;2022-12-18T08:07:16;100754.88;;;10.99;79.44
65175;BME280;51761;42.126;24.752;2022-12-18T08:09:41;100778.44;;;11.15;79.26
65175;BME280;51761;42.126;24.752;2022-12-18T08:12:07;100776.03;;;11.14;78.91
65175;BME280;51761;42.126;24.752;2022-12-18T08:14:32;100779.66;;;11.14;78.61
65175;BME280;51761;42.126;24.752;2022-12-18T08:16:57;100789.25;;;11.24;77.81
65175;BME280;51761;42.126;24.752;2022-12-18T08:19:23;100792.03;;;11.24;77.79
65175;BME280;51761;42.126;24.752;2022-12-18T08:21:49;100772.03;;;11.15;77.42
65175;BME280;51761;42.126;24.752;2022-12-18T08:24:14;100797.22;;;11.18;77.70
65175;BME280;51761;42.126;24.752;2022-12-18T08:26:40;100806.81;;;11.24;77.77
65175;BME280;51761;42.126;24.752;2022-12-18T08:29:05;100781.63;;;11.24;77.00
65175;BME280;51761;42.126;24.752;2022-12-18T08:31:31;100797.22;;;11.36;76.66
65175;BME280;51761;42.126;24.752;2022-12-18T08:33:57;100799.19;;;11.46;76.13
65175;BME280;51761;42.126;24.752;2022-12-18T08:36:23;100788.03;;;11.39;76.16
65175;BME280;51761;42.126;24.752;2022-12-18T08:38:49;100795.63;;;11.45;76.65
65175;BME280;51761;42.126;24.752;2022-12-18T08:41:16;100788.41;;;11.41;76.58
65175;BME280;51761;42.126;24.752;2022-12-18T08:43:42;100800.81;;;11.50;76.09
65175;BME280;51761;42.126;24.752;2022-12-18T08:46:27;100793.63;;;11.53;76.07
65175;BME280;51761;42.126;24.752;2022-12-18T08:48:56;100798.44;;;11.56;75.25
65175;BME280;51761;42.126;24.752;2022-12-18T08:51:22;100796.00;;;11.54;75.22
65175;BME280;51761;42.126;24.752;2022-12-18T08:53:48;100787.63;;;11.51;75.26
65175;BME280;51761;42.126;24.752;2022-12-18T08:56:13;100782.03;;;11.65;74.75
65175;BME280;51761;42.126;24.752;2022-12-18T08:58:40;100779.22;;;11.61;74.80
65175;BME280;51761;42.126;24.752;2022-12-18T09:01:09;100787.25;;;11.63;74.94
65175;BME280;51761;42.126;24.752;2022-12-18T09:03:36;100760.84;;;11.60;75.03
65175;BME280;51761;42.126;24.752;2022-12-18T09:06:02;100758.44;;;11.69;74.80
65175;BME280;51761;42.126;24.752;2022-12-18T09:08:28;100760.00;;;11.84;74.36
65175;BME280;51761;42.126;24.752;2022-12-18T09:10:54;100767.59;;;11.80;73.58
65175;BME280;51761;42.126;24.752;2022-12-18T09:13:20;100771.97;;;11.88;73.40
65175;BME280;51761;42.126;24.752;2022-12-18T09:15:48;100760.41;;;11.79;73.19
65175;BME280;51761;42.126;24.752;2022-12-18T09:18:16;100762.81;;;11.77;73.49
65175;BME280;51761;42.126;24.752;2022-12-18T09:20:43;100787.56;;;11.89;73.48
65175;BME280;51761;42.126;24.752;2022-12-18T09:23:08;100792.00;;;11.83;73.41
65175;BME280;51761;42.126;24.752;2022-12-18T09:25:35;100792.38;;;11.85;73.49
65175;BME280;51761;42.126;24.752;2022-12-18T09:28:02;100774.00;;;11.84;71.96
65175;BME280;51761;42.126;24.752;2022-12-18T09:30:28;100786.78;;;11.89;72.48
65175;BME280;51761;42.126;24.752;2022-12-18T09:32:54;100789.97;;;11.91;72.16
65175;BME280;51761;42.126;24.752;2022-12-18T09:35:20;100781.59;;;11.80;71.65
65175;BME280;51761;42.126;24.752;2022-12-18T09:37:45;100788.34;;;11.97;71.27
65175;BME280;51761;42.126;24.752;2022-12-18T09:40:18;100789.97;;;11.91;71.70
65175;BME280;51761;42.126;24.752;2022-12-18T09:43:02;100789.19;;;11.87;71.74
65175;BME280;51761;42.126;24.752;2022-12-18T09:45:32;100775.97;;;11.91;72.53
65175;BME280;51761;42.126;24.752;2022-12-18T09:48:01;100788.38;;;11.90;72.31
65175;BME280;51761;42.126;24.752;2022-12-18T09:50:35;100767.63;;;11.73;72.00
65175;BME280;51761;42.126;24.752;2022-12-18T09:53:15;100762.44;;;11.65;72.50
65175;BME280;51761;42.126;24.752;2022-12-18T09:55:43;100766.03;;;11.69;71.61
65175;BME280;51761;42.126;24.752;2022-12-18T10:00:35;100786.03;;;11.67;72.64
65175;BME280;51761;42.126;24.752;2022-12-18T10:03:09;100792.81;;;11.70;73.21
65175;BME280;51761;42.126;24.752;2022-12-18T10:10:50;100772.84;;;11.64;72.77
65175;BME280;51761;42.126;24.752;2022-12-18T10:16:03;100789.59;;;11.75;72.38
65175;BME280;51761;42.126;24.752;2022-12-18T10:26:47;100776.03;;;11.59;71.90
65175;BME280;51761;42.126;24.752;2022-12-18T10:29:14;100768.84;;;11.55;72.00
65175;BME280;51761;42.126;24.752;2022-12-18T10:31:41;100789.63;;;11.68;72.70
65175;BME280;51761;42.126;24.752;2022-12-18T10:34:12;100778.81;;;11.70;72.70
65175;BME280;51761;42.126;24.752;2022-12-18T10:36:38;100787.19;;;11.87;71.39
65175;BME280;51761;42.126;24.752;2022-12-18T10:39:33;100790.41;;;11.82;72.40
65175;BME280;51761;42.126;24.752;2022-12-18T10:42:11;100787.63;;;11.79;72.25
65175;BME280;51761;42.126;24.752;2022-12-18T10:44:38;100789.63;;;11.68;72.21
65175;BME280;51761;42.126;24.752;2022-12-18T10:47:05;100806.00;;;11.83;71.67
65175;BME280;51761;42.126;24.752;2022-12-18T10:49:33;100803.19;;;11.73;72.13
65175;BME280;51761;42.126;24.752;2022-12-18T10:52:06;100808.00;;;11.79;72.53
65175;BME280;51761;42.126;24.752;2022-12-18T10:54:33;100795.22;;;11.71;72.41
65175;BME280;51761;42.126;24.752;2022-12-18T10:57:36;100802.41;;;11.76;72.59
65175;BME280;51761;42.126;24.752;2022-12-18T11:02:46;100824.81;;;11.62;73.62
65175;BME280;51761;42.126;24.752;2022-12-18T11:05:32;100812.00;;;11.40;73.96
65175;BME280;51761;42.126;24.752;2022-12-18T11:07:59;100834.38;;;11.47;75.26
65175;BME280;51761;42.126;24.752;2022-12-18T11:10:37;100832.78;;;11.42;76.13
65175;BME280;51761;42.126;24.752;2022-12-18T11:13:29;100843.19;;;11.45;76.08
65175;BME280;51761;42.126;24.752;2022-12-18T11:15:56;100847.16;;;11.30;75.99
65175;BME280;51761;42.126;24.752;2022-12-18T11:18:28;100848.34;;;11.15;76.94
65175;BME280;51761;42.126;24.752;2022-12-18T11:21:09;100849.53;;;11.07;77.20
65175;BME280;51761;42.126;24.752;2022-12-18T11:23:37;100851.91;;;10.98;76.56
65175;BME280;51761;42.126;24.752;2022-12-18T11:26:09;100838.28;;;10.80;76.65
65175;BME280;51761;42.126;24.752;2022-12-18T11:29:07;100847.47;;;10.84;77.52
65175;BME280;51761;42.126;24.752;2022-12-18T11:31:33;100849.44;;;10.73;77.62
65175;BME280;51761;42.126;24.752;2022-12-18T11:34:25;100846.22;;;10.64;79.15
65175;BME280;51761;42.126;24.752;2022-12-18T11:36:53;100849.84;;;10.71;79.12
65175;BME280;51761;42.126;24.752;2022-12-18T11:42:22;100858.63;;;10.77;79.47
65175;BME280;51761;42.126;24.752;2022-12-18T11:44:57;100853.47;;;10.79;77.70
65175;BME280;51761;42.126;24.752;2022-12-18T11:50:19;100846.28;;;10.81;77.73
65175;BME280;51761;42.126;24.752;2022-12-18T11:52:47;100847.91;;;10.93;76.75
65175;BME280;51761;42.126;24.752;2022-12-18T11:55:31;100845.13;;;10.99;75.89
65175;BME280;51761;42.126;24.752;2022-12-18T12:00:28;100834.38;;;11.08;73.86
65175;BME280;51761;42.126;24.752;2022-12-18T12:03:21;100850.34;;;11.25;72.58
65175;BME280;51761;42.126;24.752;2022-12-18T12:11:33;100854.38;;;11.45;71.26
65175;BME280;51761;42.126;24.752;2022-12-18T12:14:27;100851.56;;;11.52;71.47
65175;BME280;51761;42.126;24.752;2022-12-18T12:17:12;100828.38;;;11.45;70.14
65175;BME280;51761;42.126;24.752;2022-12-18T12:22:45;100859.19;;;11.62;70.98
65175;BME280;51761;42.126;24.752;2022-12-18T12:25:42;100860.34;;;11.47;71.35
65175;BME280;51761;42.126;24.752;2022-12-18T12:28:28;100852.34;;;11.46;70.76
65175;BME280;51761;42.126;24.752;2022-12-18T12:33:51;100859.19;;;11.59;70.79
65175;BME280;51761;42.126;24.752;2022-12-18T12:36:25;100860.75;;;11.46;71.08
65175;BME280;51761;42.126;24.752;2022-12-18T12:38:57;100873.53;;;11.40;71.53
65175;BME280;51761;42.126;24.752;2022-12-18T12:41:27;100875.16;;;11.44;70.98
65175;BME280;51761;42.126;24.752;2022-12-18T12:44:19;100860.34;;;11.44;70.90
65175;BME280;51761;42.126;24.752;2022-12-18T12:46:47;100876.75;;;11.52;70.43
65175;BME280;51761;42.126;24.752;2022-12-18T12:49:17;100881.94;;;11.43;70.28
65175;BME280;51761;42.126;24.752;2022-12-18T12:51:47;100887.13;;;11.31;70.29
65175;BME280;51761;42.126;24.752;2022-12-18T12:54:19;100885.09;;;11.17;70.08
65175;BME280;51761;42.126;24.752;2022-12-18T13:03:06;100910.28;;;11.35;69.70
65175;BME280;51761;42.126;24.752;2022-12-18T13:08:23;100919.09;;;11.30;70.97
65175;BME280;51761;42.126;24.752;2022-12-18T13:10:49;100912.72;;;11.36;70.29
65175;BME280;51761;42.126;24.752;2022-12-18T13:13:55;100925.03;;;11.18;70.10
65175;BME280;51761;42.126;24.752;2022-12-18T13:16:23;100923.03;;;11.08;70.68
65175;BME280;51761;42.126;24.752;2022-12-18T13:18:51;100931.03;;;11.09;69.75
65175;BME280;51761;42.126;24.752;2022-12-18T13:21:24;100936.19;;;11.04;70.38
65175;BME280;51761;42.126;24.752;2022-12-18T13:23:52;100934.56;;;10.99;70.82
65175;BME280;51761;42.126;24.752;2022-12-18T13:34:27;100951.41;;;11.17;70.77
65175;BME280;51761;42.126;24.752;2022-12-18T13:39:41;100949.41;;;11.17;70.52
65175;BME280;51761;42.126;24.752;2022-12-18T13:44:55;100954.16;;;11.10;72.00
65175;BME280;51761;42.126;24.752;2022-12-18T13:47:38;100929.34;;;10.91;73.52
65175;BME280;51761;42.126;24.752;2022-12-18T13:50:23;100943.28;;;10.84;77.73
65175;BME280;51761;42.126;24.752;2022-12-18T13:52:50;100954.78;;;10.62;78.21
65175;BME280;51761;42.126;24.752;2022-12-18T13:55:18;100965.84;;;10.48;81.32
65175;BME280;51761;42.126;24.752;2022-12-18T13:57:45;100978.59;;;10.42;81.99
65175;BME280;51761;42.126;24.752;2022-12-18T14:02:49;100988.72;;;10.10;85.60
65175;BME280;51761;42.126;24.752;2022-12-18T14:05:43;100987.63;;;9.78;89.04
65175;BME280;51761;42.126;24.752;2022-12-18T14:08:14;100992.22;;;9.56;91.23
65175;BME280;51761;42.126;24.752;2022-12-18T14:10:42;100994.81;;;9.39;93.29
65175;BME280;51761;42.126;24.752;2022-12-18T14:13:09;101000.34;;;9.36;95.07
65175;BME280;51761;42.126;24.752;2022-12-18T14:15:40;101007.16;;;9.38;95.20
65175;BME280;51761;42.126;24.752;2022-12-18T14:20:52;100995.22;;;9.41;93.27
65175;BME280;51761;42.126;24.752;2022-12-18T14:23:37;101016.78;;;9.47;89.61
65175;BME280;51761;42.126;24.752;2022-12-18T14:26:20;101014.66;;;9.34;88.33
65175;BME280;51761;42.126;24.752;2022-12-18T14:28:47;101010.88;;;9.16;85.25
65175;BME280;51761;42.126;24.752;2022-12-18T14:31:20;101004.75;;;9.04;83.61
65175;BME280;51761;42.126;24.752;2022-12-18T14:33:46;101033.31;;;9.27;83.45
65175;BME280;51761;42.126;24.752;2022-12-18T14:36:16;101037.28;;;9.29;81.59
65175;BME280;51761;42.126;24.752;2022-12-18T14:38:43;101002.78;;;9.08;82.64
65175;BME280;51761;42.126;24.752;2022-12-18T14:41:14;101043.28;;;9.31;82.88
65175;BME280;51761;42.126;24.752;2022-12-18T14:43:43;101044.47;;;9.30;81.35
65175;BME280;51761;42.126;24.752;2022-12-18T14:48:53;101044.88;;;9.29;81.45
65175;BME280;51761;42.126;24.752;2022-12-18T14:51:21;101046.13;;;9.35;80.53
65175;BME280;51761;42.126;24.752;2022-12-18T14:53:57;101049.41;;;9.40;81.02
65175;BME280;51761;42.126;24.752;2022-12-18T14:56:36;101053.03;;;9.44;80.02
65175;BME280;51761;42.126;24.752;2022-12-18T14:59:04;101058.63;;;9.47;80.74
65175;BME280;51761;42.126;24.752;2022-12-18T15:04:33;101059.03;;;9.49;81.63
65175;BME280;51761;42.126;24.752;2022-12-18T15:07:17;101059.91;;;9.53;77.14
65175;BME280;51761;42.126;24.752;2022-12-18T15:10:01;101058.97;;;9.42;77.72
65175;BME280;51761;42.126;24.752;2022-12-18T15:15:05;101075.81;;;9.53;78.09
65175;BME280;51761;42.126;24.752;2022-12-18T15:17:57;101061.41;;;9.47;78.14
65175;BME280;51761;42.126;24.752;2022-12-18T15:20:22;101077.59;;;9.68;78.24
65175;BME280;51761;42.126;24.752;2022-12-18T15:22:48;101060.78;;;9.61;78.94
65175;BME280;51761;42.126;24.752;2022-12-18T15:25:30;101089.59;;;9.72;79.69
65175;BME280;51761;42.126;24.752;2022-12-18T15:27:57;101067.59;;;9.63;83.06
65175;BME280;51761;42.126;24.752;2022-12-18T15:30:24;101080.88;;;9.77;85.77
65175;BME280;51761;42.126;24.752;2022-12-18T15:32:51;101088.34;;;9.66;87.75
65175;BME280;51761;42.126;24.752;2022-12-18T15:35:22;101095.13;;;9.68;87.96
65175;BME280;51761;42.126;24.752;2022-12-18T15:37:49;101098.97;;;9.57;89.32
65175;BME280;51761;42.126;24.752;2022-12-18T15:40:20;101113.63;;;9.47;90.73
65175;BME280;51761;42.126;24.752;2022-12-18T15:42:47;101120.09;;;9.58;91.55
65175;BME280;51761;42.126;24.752;2022-12-18T15:45:32;101134.75;;;9.48;91.47
65175;BME280;51761;42.126;24.752;2022-12-18T15:47:58;101131.56;;;9.49;91.63
65175;BME280;51761;42.126;24.752;2022-12-18T15:50:24;101119.53;;;9.42;92.43
65175;BME280;51761;42.126;24.752;2022-12-18T15:52:52;101138.63;;;9.40;94.34
65175;BME280;51761;42.126;24.752;2022-12-18T15:55:21;101146.59;;;9.41;95.02
65175;BME280;51761;42.126;24.752;2022-12-18T15:58:06;101136.91;;;9.32;96.44
65175;BME280;51761;42.126;24.752;2022-12-18T16:00:38;101133.28;;;9.28;96.62
65175;BME280;51761;42.126;24.752;2022-12-18T16:03:04;101163.38;;;9.45;97.32
65175;BME280;51761;42.126;24.752;2022-12-18T16:05:30;101147.84;;;9.44;97.36
65175;BME280;51761;42.126;24.752;2022-12-18T16:07:57;101158.56;;;9.42;97.81
65175;BME280;51761;42.126;24.752;2022-12-18T16:10:24;101144.84;;;9.30;96.65
65175;BME280;51761;42.126;24.752;2022-12-18T16:12:50;101151.47;;;9.48;97.01
65175;BME280;51761;42.126;24.752;2022-12-18T16:15:16;101147.28;;;9.35;96.85
65175;BME280;51761;42.126;24.752;2022-12-18T16:17:46;101152.56;;;9.40;95.92
65175;BME280;51761;42.126;24.752;2022-12-18T16:20:18;101161.88;;;9.51;93.74
65175;BME280;51761;42.126;24.752;2022-12-18T16:22:44;101163.47;;;9.52;94.04
65175;BME280;51761;42.126;24.752;2022-12-18T16:25:22;101167.44;;;9.51;93.69
65175;BME280;51761;42.126;24.752;2022-12-18T16:27:47;101173.78;;;9.48;91.98
65175;BME280;51761;42.126;24.752;2022-12-18T16:30:20;101169.38;;;9.47;87.05
65175;BME280;51761;42.126;24.752;2022-12-18T16:32:46;101174.06;;;9.39;89.83
65175;BME280;51761;42.126;24.752;2022-12-18T16:35:13;101171.53;;;9.31;92.35
65175;BME280;51761;42.126;24.752;2022-12-18T16:37:40;101139.59;;;8.96;94.68
65175;BME280;51761;42.126;24.752;2022-12-18T16:40:11;101183.13;;;9.07;98.25
65175;BME280;51761;42.126;24.752;2022-12-18T16:42:39;101176.25;;;8.98;99.88
65175;BME280;51761;42.126;24.752;2022-12-18T16:45:07;101177.72;;;8.92;100.00
65175;BME280;51761;42.126;24.752;2022-12-18T16:47:33;101155.88;;;8.68;100.00
65175;BME280;51761;42.126;24.752;2022-12-18T16:49:59;101181.66;;;8.87;100.00
65175;BME280;51761;42.126;24.752;2022-12-18T16:52:24;101189.91;;;8.80;100.00
65175;BME280;51761;42.126;24.752;2022-12-18T16:54:50;101183.75;;;8.71;100.00
65175;BME280;51761;42.126;24.752;2022-12-18T16:57:18;101168.88;;;8.60;100.00
65175;BME280;51761;42.126;24.752;2022-12-18T16:59:44;101184.06;;;8.66;100.00
65175;BME280;51761;42.126;24.752;2022-12-18T17:02:16;101191.66;;;8.66;100.00
65175;BME280;51761;42.126;24.752;2022-12-18T17:04:42;101194.34;;;8.62;100.00
65175;BME280;51761;42.126;24.752;2022-12-18T17:07:08;101204.75;;;8.65;100.00
65175;BME280;51761;42.126;24.752;2022-12-18T17:09:34;101203.56;;;8.66;100.00
65175;BME280;51761;42.126;24.752;2022-12-18T17:11:59;101221.34;;;8.81;100.00
65175;BME280;51761;42.126;24.752;2022-12-18T17:14:25;101223.00;;;8.85;100.00
65175;BME280;51761;42.126;24.752;2022-12-18T17:16:52;101227.84;;;8.88;100.00
65175;BME280;51761;42.126;24.752;2022-12-18T17:19:18;101206.63;;;8.80;100.00
65175;BME280;51761;42.126;24.752;2022-12-18T17:21:47;101218.41;;;8.96;100.00
65175;BME280;51761;42.126;24.752;2022-12-18T17:24:12;101207.59;;;8.91;100.00
65175;BME280;51761;42.126;24.752;2022-12-18T17:26:38;101218.63;;;9.10;100.00
65175;BME280;51761;42.126;24.752;2022-12-18T17:29:03;101197.28;;;8.95;99.02
65175;BME280;51761;42.126;24.752;2022-12-18T17:31:29;101205.44;;;9.07;97.62
65175;BME280;51761;42.126;24.752;2022-12-18T17:33:56;101207.50;;;9.10;96.11
65175;BME280;51761;42.126;24.752;2022-12-18T17:36:22;101229.63;;;9.26;94.61
65175;BME280;51761;42.126;24.752;2022-12-18T17:38:52;101237.28;;;9.32;94.29
65175;BME280;51761;42.126;24.752;2022-12-18T17:41:18;101217.03;;;9.09;96.11
65175;BME280;51761;42.126;24.752;2022-12-18T17:43:56;101224.09;;;9.03;97.11
65175;BME280;51761;42.126;24.752;2022-12-18T17:46:22;101243.97;;;9.02;98.18
65175;BME280;51761;42.126;24.752;2022-12-18T17:48:48;101211.13;;;8.88;99.01
65175;BME280;51761;42.126;24.752;2022-12-18T17:51:15;101253.88;;;8.99;99.31
65175;BME280;51761;42.126;24.752;2022-12-18T17:53:41;101253.34;;;8.90;100.00
65175;BME280;51761;42.126;24.752;2022-12-18T17:56:08;101230.97;;;8.87;99.94
65175;BME280;51761;42.126;24.752;2022-12-18T17:58:37;101255.81;;;8.95;100.00
65175;BME280;51761;42.126;24.752;2022-12-18T18:01:04;101271.13;;;8.82;100.00
65175;BME280;51761;42.126;24.752;2022-12-18T18:03:31;101250.13;;;8.88;100.00
65175;BME280;51761;42.126;24.752;2022-12-18T18:05:58;101267.69;;;8.92;100.00
65175;BME280;51761;42.126;24.752;2022-12-18T18:08:24;101277.88;;;8.81;100.00
65175;BME280;51761;42.126;24.752;2022-12-18T18:10:50;101286.59;;;8.80;100.00
65175;BME280;51761;42.126;24.752;2022-12-18T18:13:24;101294.44;;;8.74;100.00
65175;BME280;51761;42.126;24.752;2022-12-18T18:16:10;101299.97;;;8.71;100.00
65175;BME280;51761;42.126;24.752;2022-12-18T18:18:37;101303.63;;;8.56;100.00